sensor_id;sensor_type;location;lat;lon;timestamp;P1;durP1;ratioP1;P2;durP2;ratioP2
56511;SDS011;42408;53.238;5.686;2022-11-23T00:00:32;18.20;;;13.30;;
56511;SDS011;42408;53.238;5.686;2022-11-23T00:02:58;19.93;;;13.93;;
56511;SDS011;42408;53.238;5.686;2022-11-23T00:05:25;19.37;;;13.90;;
56511;SDS011;42408;53.238;5.686;2022-11-23T00:07:51;19.05;;;13.20;;
56511;SDS011;42408;53.238;5.686;2022-11-23T00:10:17;17.90;;;13.03;;
56511;SDS011;42408;53.238;5.686;2022-11-23T00:12:43;17.03;;;12.10;;
56511;SDS011;42408;53.238;5.686;2022-11-23T00:15:09;20.07;;;13.33;;
56511;SDS011;42408;53.238;5.686;2022-11-23T00:17:37;18.98;;;13.10;;
56511;SDS011;42408;53.238;5.686;2022-11-23T00:20:04;17.97;;;13.17;;
56511;SDS011;42408;53.238;5.686;2022-11-23T00:22:31;16.95;;;12.13;;
56511;SDS011;42408;53.238;5.686;2022-11-23T00:24:57;18.97;;;13.27;;
56511;SDS011;42408;53.238;5.686;2022-11-23T00:27:22;19.73;;;13.53;;
56511;SDS011;42408;53.238;5.686;2022-11-23T00:29:48;19.37;;;13.27;;
56511;SDS011;42408;53.238;5.686;2022-11-23T00:32:14;20.03;;;12.87;;
56511;SDS011;42408;53.238;5.686;2022-11-23T00:34:39;22.50;;;13.27;;
56511;SDS011;42408;53.238;5.686;2022-11-23T00:37:05;24.47;;;14.07;;
56511;SDS011;42408;53.238;5.686;2022-11-23T00:39:30;20.40;;;13.70;;
56511;SDS011;42408;53.238;5.686;2022-11-23T00:41:56;17.43;;;13.20;;
56511;SDS011;42408;53.238;5.686;2022-11-23T00:44:22;20.53;;;13.47;;
56511;SDS011;42408;53.238;5.686;2022-11-23T00:46:47;18.57;;;13.60;;
56511;SDS011;42408;53.238;5.686;2022-11-23T00:49:13;19.43;;;12.77;;
56511;SDS011;42408;53.238;5.686;2022-11-23T00:51:38;16.53;;;12.10;;
56511;SDS011;42408;53.238;5.686;2022-11-23T00:54:04;17.80;;;13.13;;
56511;SDS011;42408;53.238;5.686;2022-11-23T00:56:31;20.23;;;13.10;;
56511;SDS011;42408;53.238;5.686;2022-11-23T00:58:58;17.55;;;12.77;;
56511;SDS011;42408;53.238;5.686;2022-11-23T01:01:26;20.85;;;13.68;;
56511;SDS011;42408;53.238;5.686;2022-11-23T01:03:58;22.55;;;14.13;;
56511;SDS011;42408;53.238;5.686;2022-11-23T01:09:02;19.80;;;12.48;;
56511;SDS011;42408;53.238;5.686;2022-11-23T01:11:33;20.95;;;13.80;;
56511;SDS011;42408;53.238;5.686;2022-11-23T01:13:59;19.17;;;13.48;;
56511;SDS011;42408;53.238;5.686;2022-11-23T01:16:26;20.93;;;13.67;;
56511;SDS011;42408;53.238;5.686;2022-11-23T01:18:58;20.42;;;13.75;;
56511;SDS011;42408;53.238;5.686;2022-11-23T01:21:25;18.73;;;13.15;;
56511;SDS011;42408;53.238;5.686;2022-11-23T01:23:52;21.38;;;13.07;;
56511;SDS011;42408;53.238;5.686;2022-11-23T01:26:18;21.20;;;13.50;;
56511;SDS011;42408;53.238;5.686;2022-11-23T01:28:44;18.47;;;12.93;;
56511;SDS011;42408;53.238;5.686;2022-11-23T01:31:11;25.20;;;14.83;;
56511;SDS011;42408;53.238;5.686;2022-11-23T01:33:38;20.75;;;14.65;;
56511;SDS011;42408;53.238;5.686;2022-11-23T01:36:11;22.30;;;14.10;;
56511;SDS011;42408;53.238;5.686;2022-11-23T01:38:38;20.55;;;14.23;;
56511;SDS011;42408;53.238;5.686;2022-11-23T01:41:05;21.17;;;13.70;;
56511;SDS011;42408;53.238;5.686;2022-11-23T01:43:32;20.95;;;14.43;;
56511;SDS011;42408;53.238;5.686;2022-11-23T01:45:59;20.87;;;15.13;;
56511;SDS011;42408;53.238;5.686;2022-11-23T01:48:28;23.35;;;15.52;;
56511;SDS011;42408;53.238;5.686;2022-11-23T01:50:57;27.38;;;15.77;;
56511;SDS011;42408;53.238;5.686;2022-11-23T01:53:27;23.70;;;15.25;;
56511;SDS011;42408;53.238;5.686;2022-11-23T01:55:54;21.60;;;15.73;;
56511;SDS011;42408;53.238;5.686;2022-11-23T01:58:24;23.50;;;14.90;;
56511;SDS011;42408;53.238;5.686;2022-11-23T02:00:51;23.23;;;14.85;;
56511;SDS011;42408;53.238;5.686;2022-11-23T02:03:16;29.03;;;17.17;;
56511;SDS011;42408;53.238;5.686;2022-11-23T02:05:43;27.48;;;17.85;;
56511;SDS011;42408;53.238;5.686;2022-11-23T02:08:13;25.23;;;16.65;;
56511;SDS011;42408;53.238;5.686;2022-11-23T02:10:41;26.65;;;17.40;;
56511;SDS011;42408;53.238;5.686;2022-11-23T02:13:07;26.87;;;16.97;;
56511;SDS011;42408;53.238;5.686;2022-11-23T02:15:35;29.13;;;17.52;;
56511;SDS011;42408;53.238;5.686;2022-11-23T02:18:02;30.00;;;18.60;;
56511;SDS011;42408;53.238;5.686;2022-11-23T02:20:30;29.08;;;18.42;;
56511;SDS011;42408;53.238;5.686;2022-11-23T02:28:07;36.55;;;20.17;;
56511;SDS011;42408;53.238;5.686;2022-11-23T02:30:34;33.65;;;20.67;;
56511;SDS011;42408;53.238;5.686;2022-11-23T02:33:02;31.98;;;19.80;;
56511;SDS011;42408;53.238;5.686;2022-11-23T02:35:29;34.15;;;20.65;;
56511;SDS011;42408;53.238;5.686;2022-11-23T02:37:55;31.37;;;18.83;;
56511;SDS011;42408;53.238;5.686;2022-11-23T02:40:28;31.27;;;19.40;;
56511;SDS011;42408;53.238;5.686;2022-11-23T02:42:57;36.00;;;21.42;;
56511;SDS011;42408;53.238;5.686;2022-11-23T02:45:25;31.60;;;18.98;;
56511;SDS011;42408;53.238;5.686;2022-11-23T02:47:58;33.00;;;18.27;;
56511;SDS011;42408;53.238;5.686;2022-11-23T02:50:24;30.20;;;18.60;;
56511;SDS011;42408;53.238;5.686;2022-11-23T02:52:50;33.37;;;21.93;;
56511;SDS011;42408;53.238;5.686;2022-11-23T02:55:15;34.87;;;20.80;;
56511;SDS011;42408;53.238;5.686;2022-11-23T02:57:41;34.20;;;20.83;;
56511;SDS011;42408;53.238;5.686;2022-11-23T03:00:07;29.90;;;19.83;;
56511;SDS011;42408;53.238;5.686;2022-11-23T03:02:33;35.80;;;19.77;;
56511;SDS011;42408;53.238;5.686;2022-11-23T03:04:58;30.53;;;20.43;;
56511;SDS011;42408;53.238;5.686;2022-11-23T03:07:24;33.87;;;20.37;;
56511;SDS011;42408;53.238;5.686;2022-11-23T03:09:50;31.63;;;20.37;;
56511;SDS011;42408;53.238;5.686;2022-11-23T03:12:15;30.90;;;20.00;;
56511;SDS011;42408;53.238;5.686;2022-11-23T03:14:41;33.40;;;21.67;;
56511;SDS011;42408;53.238;5.686;2022-11-23T03:17:06;30.80;;;21.20;;
56511;SDS011;42408;53.238;5.686;2022-11-23T03:19:32;35.63;;;21.73;;
56511;SDS011;42408;53.238;5.686;2022-11-23T03:21:58;32.97;;;19.00;;
56511;SDS011;42408;53.238;5.686;2022-11-23T03:24:23;37.03;;;21.80;;
56511;SDS011;42408;53.238;5.686;2022-11-23T03:26:49;36.80;;;22.90;;
56511;SDS011;42408;53.238;5.686;2022-11-23T03:29:14;39.53;;;22.23;;
56511;SDS011;42408;53.238;5.686;2022-11-23T03:31:40;40.60;;;22.20;;
56511;SDS011;42408;53.238;5.686;2022-11-23T03:34:06;38.57;;;22.60;;
56511;SDS011;42408;53.238;5.686;2022-11-23T03:36:32;37.13;;;22.77;;
56511;SDS011;42408;53.238;5.686;2022-11-23T03:38:58;45.83;;;24.73;;
56511;SDS011;42408;53.238;5.686;2022-11-23T03:41:23;39.60;;;22.10;;
56511;SDS011;42408;53.238;5.686;2022-11-23T03:43:49;40.13;;;22.63;;
56511;SDS011;42408;53.238;5.686;2022-11-23T03:46:15;34.63;;;23.43;;
56511;SDS011;42408;53.238;5.686;2022-11-23T03:48:40;39.83;;;23.93;;
56511;SDS011;42408;53.238;5.686;2022-11-23T03:51:06;39.73;;;22.70;;
56511;SDS011;42408;53.238;5.686;2022-11-23T03:53:32;41.40;;;24.05;;
56511;SDS011;42408;53.238;5.686;2022-11-23T03:55:58;39.80;;;24.40;;
56511;SDS011;42408;53.238;5.686;2022-11-23T03:58:23;39.70;;;24.67;;
56511;SDS011;42408;53.238;5.686;2022-11-23T04:00:49;38.17;;;23.10;;
56511;SDS011;42408;53.238;5.686;2022-11-23T04:03:15;41.13;;;23.50;;
56511;SDS011;42408;53.238;5.686;2022-11-23T04:05:40;36.57;;;23.43;;
56511;SDS011;42408;53.238;5.686;2022-11-23T04:08:06;36.83;;;22.60;;
56511;SDS011;42408;53.238;5.686;2022-11-23T04:10:33;38.15;;;23.42;;
56511;SDS011;42408;53.238;5.686;2022-11-23T04:12:58;38.33;;;23.60;;
56511;SDS011;42408;53.238;5.686;2022-11-23T04:15:24;35.90;;;22.27;;
56511;SDS011;42408;53.238;5.686;2022-11-23T04:17:49;40.83;;;23.80;;
56511;SDS011;42408;53.238;5.686;2022-11-23T04:20:15;38.37;;;24.10;;
56511;SDS011;42408;53.238;5.686;2022-11-23T04:22:41;37.03;;;24.03;;
56511;SDS011;42408;53.238;5.686;2022-11-23T04:25:07;39.40;;;23.47;;
56511;SDS011;42408;53.238;5.686;2022-11-23T04:27:33;41.40;;;24.35;;
56511;SDS011;42408;53.238;5.686;2022-11-23T04:29:59;38.00;;;23.67;;
56511;SDS011;42408;53.238;5.686;2022-11-23T04:32:24;37.93;;;24.73;;
56511;SDS011;42408;53.238;5.686;2022-11-23T04:34:50;40.80;;;24.27;;
56511;SDS011;42408;53.238;5.686;2022-11-23T04:37:15;36.93;;;22.50;;
56511;SDS011;42408;53.238;5.686;2022-11-23T04:39:41;38.10;;;23.93;;
56511;SDS011;42408;53.238;5.686;2022-11-23T04:42:07;39.77;;;22.97;;
56511;SDS011;42408;53.238;5.686;2022-11-23T04:44:35;33.92;;;21.10;;
56511;SDS011;42408;53.238;5.686;2022-11-23T04:47:01;39.77;;;22.73;;
56511;SDS011;42408;53.238;5.686;2022-11-23T04:49:26;39.87;;;24.17;;
56511;SDS011;42408;53.238;5.686;2022-11-23T04:51:52;36.00;;;22.50;;
56511;SDS011;42408;53.238;5.686;2022-11-23T04:54:19;38.42;;;24.10;;
56511;SDS011;42408;53.238;5.686;2022-11-23T04:56:44;35.50;;;22.37;;
56511;SDS011;42408;53.238;5.686;2022-11-23T04:59:10;36.73;;;21.13;;
56511;SDS011;42408;53.238;5.686;2022-11-23T05:01:35;38.90;;;22.77;;
56511;SDS011;42408;53.238;5.686;2022-11-23T05:04:01;40.70;;;21.20;;
56511;SDS011;42408;53.238;5.686;2022-11-23T05:06:27;37.10;;;22.07;;
56511;SDS011;42408;53.238;5.686;2022-11-23T05:08:52;32.17;;;19.77;;
56511;SDS011;42408;53.238;5.686;2022-11-23T05:11:18;32.93;;;20.33;;
56511;SDS011;42408;53.238;5.686;2022-11-23T05:13:44;34.95;;;19.98;;
56511;SDS011;42408;53.238;5.686;2022-11-23T05:16:10;30.83;;;19.90;;
56511;SDS011;42408;53.238;5.686;2022-11-23T05:18:35;33.43;;;20.37;;
56511;SDS011;42408;53.238;5.686;2022-11-23T05:21:01;36.23;;;20.97;;
56511;SDS011;42408;53.238;5.686;2022-11-23T05:23:27;34.43;;;20.30;;
56511;SDS011;42408;53.238;5.686;2022-11-23T05:25:52;37.20;;;20.53;;
56511;SDS011;42408;53.238;5.686;2022-11-23T05:28:19;29.47;;;19.47;;
56511;SDS011;42408;53.238;5.686;2022-11-23T05:30:46;31.48;;;19.52;;
56511;SDS011;42408;53.238;5.686;2022-11-23T05:33:11;34.37;;;19.73;;
56511;SDS011;42408;53.238;5.686;2022-11-23T05:35:37;35.40;;;20.73;;
56511;SDS011;42408;53.238;5.686;2022-11-23T05:38:03;34.63;;;20.20;;
56511;SDS011;42408;53.238;5.686;2022-11-23T05:40:30;29.40;;;19.40;;
56511;SDS011;42408;53.238;5.686;2022-11-23T05:42:57;35.77;;;20.90;;
56511;SDS011;42408;53.238;5.686;2022-11-23T05:45:23;33.83;;;20.02;;
56511;SDS011;42408;53.238;5.686;2022-11-23T05:47:53;36.60;;;21.88;;
56511;SDS011;42408;53.238;5.686;2022-11-23T05:50:20;34.40;;;20.50;;
56511;SDS011;42408;53.238;5.686;2022-11-23T05:52:49;35.95;;;22.08;;
56511;SDS011;42408;53.238;5.686;2022-11-23T05:55:15;34.03;;;21.40;;
56511;SDS011;42408;53.238;5.686;2022-11-23T05:57:41;36.40;;;22.43;;
56511;SDS011;42408;53.238;5.686;2022-11-23T06:00:07;36.80;;;22.30;;
56511;SDS011;42408;53.238;5.686;2022-11-23T06:02:36;35.03;;;23.67;;
56511;SDS011;42408;53.238;5.686;2022-11-23T06:05:03;43.05;;;25.10;;
56511;SDS011;42408;53.238;5.686;2022-11-23T06:07:30;38.30;;;22.95;;
56511;SDS011;42408;53.238;5.686;2022-11-23T06:09:56;42.47;;;23.67;;
56511;SDS011;42408;53.238;5.686;2022-11-23T06:12:22;39.30;;;22.43;;
56511;SDS011;42408;53.238;5.686;2022-11-23T06:14:48;41.13;;;23.83;;
56511;SDS011;42408;53.238;5.686;2022-11-23T06:17:13;36.87;;;21.87;;
56511;SDS011;42408;53.238;5.686;2022-11-23T06:19:39;43.37;;;24.23;;
56511;SDS011;42408;53.238;5.686;2022-11-23T06:22:05;37.27;;;23.53;;
56511;SDS011;42408;53.238;5.686;2022-11-23T06:24:30;38.60;;;22.43;;
56511;SDS011;42408;53.238;5.686;2022-11-23T06:26:56;41.33;;;24.47;;
56511;SDS011;42408;53.238;5.686;2022-11-23T06:29:21;42.83;;;23.30;;
56511;SDS011;42408;53.238;5.686;2022-11-23T06:31:47;36.70;;;22.57;;
56511;SDS011;42408;53.238;5.686;2022-11-23T06:34:13;38.73;;;24.10;;
56511;SDS011;42408;53.238;5.686;2022-11-23T06:36:38;40.03;;;22.33;;
56511;SDS011;42408;53.238;5.686;2022-11-23T06:39:04;36.93;;;23.27;;
56511;SDS011;42408;53.238;5.686;2022-11-23T06:41:30;44.97;;;25.57;;
56511;SDS011;42408;53.238;5.686;2022-11-23T06:43:55;40.97;;;23.60;;
56511;SDS011;42408;53.238;5.686;2022-11-23T06:46:21;46.77;;;23.37;;
56511;SDS011;42408;53.238;5.686;2022-11-23T06:48:47;42.77;;;24.50;;
56511;SDS011;42408;53.238;5.686;2022-11-23T06:51:13;42.77;;;24.47;;
56511;SDS011;42408;53.238;5.686;2022-11-23T06:53:39;44.47;;;24.20;;
56511;SDS011;42408;53.238;5.686;2022-11-23T06:56:06;39.15;;;24.35;;
56511;SDS011;42408;53.238;5.686;2022-11-23T06:58:32;39.72;;;22.95;;
56511;SDS011;42408;53.238;5.686;2022-11-23T07:00:58;41.53;;;23.67;;
56511;SDS011;42408;53.238;5.686;2022-11-23T07:03:29;38.10;;;23.33;;
56511;SDS011;42408;53.238;5.686;2022-11-23T07:05:55;40.27;;;24.17;;
56511;SDS011;42408;53.238;5.686;2022-11-23T07:08:21;39.07;;;23.37;;
56511;SDS011;42408;53.238;5.686;2022-11-23T07:10:46;40.53;;;23.67;;
56511;SDS011;42408;53.238;5.686;2022-11-23T07:13:12;34.87;;;21.67;;
56511;SDS011;42408;53.238;5.686;2022-11-23T07:15:38;36.25;;;22.67;;
56511;SDS011;42408;53.238;5.686;2022-11-23T07:18:05;43.97;;;22.65;;
56511;SDS011;42408;53.238;5.686;2022-11-23T07:20:31;37.45;;;20.40;;
56511;SDS011;42408;53.238;5.686;2022-11-23T07:22:58;37.28;;;20.13;;
56511;SDS011;42408;53.238;5.686;2022-11-23T07:25:32;30.30;;;19.88;;
56511;SDS011;42408;53.238;5.686;2022-11-23T07:28:00;34.03;;;20.25;;
56511;SDS011;42408;53.238;5.686;2022-11-23T07:30:27;35.72;;;19.27;;
56511;SDS011;42408;53.238;5.686;2022-11-23T07:32:57;35.03;;;18.85;;
56511;SDS011;42408;53.238;5.686;2022-11-23T07:35:25;30.75;;;17.75;;
56511;SDS011;42408;53.238;5.686;2022-11-23T07:37:51;29.75;;;18.20;;
56511;SDS011;42408;53.238;5.686;2022-11-23T07:40:16;34.07;;;18.13;;
56511;SDS011;42408;53.238;5.686;2022-11-23T07:42:42;29.83;;;18.07;;
56511;SDS011;42408;53.238;5.686;2022-11-23T07:45:08;27.80;;;17.10;;
56511;SDS011;42408;53.238;5.686;2022-11-23T07:47:34;29.48;;;16.75;;
56511;SDS011;42408;53.238;5.686;2022-11-23T07:50:00;38.13;;;17.93;;
56511;SDS011;42408;53.238;5.686;2022-11-23T07:52:25;31.23;;;17.27;;
56511;SDS011;42408;53.238;5.686;2022-11-23T07:54:51;30.43;;;16.13;;
56511;SDS011;42408;53.238;5.686;2022-11-23T07:57:17;29.03;;;14.77;;
56511;SDS011;42408;53.238;5.686;2022-11-23T07:59:42;25.47;;;15.67;;
56511;SDS011;42408;53.238;5.686;2022-11-23T08:02:14;28.20;;;15.47;;
56511;SDS011;42408;53.238;5.686;2022-11-23T08:04:39;28.00;;;14.95;;
56511;SDS011;42408;53.238;5.686;2022-11-23T08:07:05;22.90;;;14.67;;
56511;SDS011;42408;53.238;5.686;2022-11-23T08:09:31;22.40;;;14.93;;
56511;SDS011;42408;53.238;5.686;2022-11-23T08:11:56;26.20;;;14.27;;
56511;SDS011;42408;53.238;5.686;2022-11-23T08:14:22;23.20;;;14.10;;
56511;SDS011;42408;53.238;5.686;2022-11-23T08:16:48;25.67;;;13.37;;
56511;SDS011;42408;53.238;5.686;2022-11-23T08:21:40;21.83;;;12.63;;
56511;SDS011;42408;53.238;5.686;2022-11-23T08:24:06;22.77;;;13.13;;
56511;SDS011;42408;53.238;5.686;2022-11-23T08:26:32;22.30;;;12.83;;
56511;SDS011;42408;53.238;5.686;2022-11-23T08:28:57;21.70;;;12.03;;
56511;SDS011;42408;53.238;5.686;2022-11-23T08:31:23;20.40;;;11.77;;
56511;SDS011;42408;53.238;5.686;2022-11-23T08:33:49;20.47;;;12.17;;
56511;SDS011;42408;53.238;5.686;2022-11-23T08:36:14;22.23;;;12.77;;
56511;SDS011;42408;53.238;5.686;2022-11-23T08:38:40;20.67;;;11.50;;
56511;SDS011;42408;53.238;5.686;2022-11-23T08:41:06;23.30;;;12.87;;
56511;SDS011;42408;53.238;5.686;2022-11-23T08:43:32;25.10;;;12.30;;
56511;SDS011;42408;53.238;5.686;2022-11-23T08:45:59;20.88;;;12.05;;
56511;SDS011;42408;53.238;5.686;2022-11-23T08:48:26;22.15;;;11.82;;
56511;SDS011;42408;53.238;5.686;2022-11-23T08:50:52;22.85;;;12.63;;
56511;SDS011;42408;53.238;5.686;2022-11-23T08:53:18;28.77;;;12.27;;
56511;SDS011;42408;53.238;5.686;2022-11-23T08:55:44;19.33;;;12.03;;
56511;SDS011;42408;53.238;5.686;2022-11-23T08:58:10;20.97;;;12.63;;
56511;SDS011;42408;53.238;5.686;2022-11-23T09:00:36;23.37;;;12.43;;
56511;SDS011;42408;53.238;5.686;2022-11-23T09:03:02;19.90;;;11.20;;
56511;SDS011;42408;53.238;5.686;2022-11-23T09:05:28;23.73;;;12.60;;
56511;SDS011;42408;53.238;5.686;2022-11-23T09:07:57;22.10;;;12.57;;
56511;SDS011;42408;53.238;5.686;2022-11-23T09:10:24;20.10;;;10.60;;
56511;SDS011;42408;53.238;5.686;2022-11-23T09:12:49;20.20;;;11.07;;
56511;SDS011;42408;53.238;5.686;2022-11-23T09:15:15;27.20;;;13.23;;
56511;SDS011;42408;53.238;5.686;2022-11-23T09:17:41;22.95;;;13.10;;
56511;SDS011;42408;53.238;5.686;2022-11-23T09:20:07;20.33;;;11.97;;
56511;SDS011;42408;53.238;5.686;2022-11-23T09:22:34;22.30;;;12.38;;
56511;SDS011;42408;53.238;5.686;2022-11-23T09:24:59;21.47;;;12.10;;
56511;SDS011;42408;53.238;5.686;2022-11-23T09:27:25;21.77;;;12.10;;
56511;SDS011;42408;53.238;5.686;2022-11-23T09:29:51;22.07;;;13.23;;
56511;SDS011;42408;53.238;5.686;2022-11-23T09:32:16;21.97;;;11.73;;
56511;SDS011;42408;53.238;5.686;2022-11-23T09:34:42;22.07;;;11.03;;
56511;SDS011;42408;53.238;5.686;2022-11-23T09:37:09;22.58;;;12.40;;
56511;SDS011;42408;53.238;5.686;2022-11-23T09:39:35;19.02;;;11.65;;
56511;SDS011;42408;53.238;5.686;2022-11-23T09:47:39;22.80;;;12.90;;
56511;SDS011;42408;53.238;5.686;2022-11-23T09:52:51;18.42;;;11.60;;
56511;SDS011;42408;53.238;5.686;2022-11-23T09:57:59;18.95;;;10.70;;
56511;SDS011;42408;53.238;5.686;2022-11-23T10:00:29;19.38;;;9.88;;
56511;SDS011;42408;53.238;5.686;2022-11-23T10:03:02;22.85;;;10.23;;
56511;SDS011;42408;53.238;5.686;2022-11-23T10:05:30;17.25;;;9.63;;
56511;SDS011;42408;53.238;5.686;2022-11-23T10:08:09;17.95;;;9.15;;
56511;SDS011;42408;53.238;5.686;2022-11-23T10:10:50;20.33;;;9.27;;
56511;SDS011;42408;53.238;5.686;2022-11-23T10:13:37;17.50;;;8.65;;
56511;SDS011;42408;53.238;5.686;2022-11-23T10:16:27;16.98;;;9.50;;
56511;SDS011;42408;53.238;5.686;2022-11-23T10:21:51;15.00;;;9.27;;
56511;SDS011;42408;53.238;5.686;2022-11-23T10:24:20;19.52;;;8.93;;
56511;SDS011;42408;53.238;5.686;2022-11-23T10:26:52;14.07;;;8.32;;
56511;SDS011;42408;53.238;5.686;2022-11-23T10:29:29;18.40;;;7.60;;
56511;SDS011;42408;53.238;5.686;2022-11-23T10:32:01;14.15;;;7.35;;
56511;SDS011;42408;53.238;5.686;2022-11-23T10:34:39;15.35;;;7.43;;
56511;SDS011;42408;53.238;5.686;2022-11-23T10:37:13;18.45;;;7.13;;
56511;SDS011;42408;53.238;5.686;2022-11-23T10:39:40;21.08;;;7.75;;
56511;SDS011;42408;53.238;5.686;2022-11-23T10:42:27;14.30;;;7.07;;
56511;SDS011;42408;53.238;5.686;2022-11-23T10:45:00;21.52;;;8.23;;
56511;SDS011;42408;53.238;5.686;2022-11-23T10:47:47;14.87;;;5.90;;
56511;SDS011;42408;53.238;5.686;2022-11-23T10:50:23;13.32;;;6.82;;
56511;SDS011;42408;53.238;5.686;2022-11-23T10:53:17;17.42;;;6.18;;
56511;SDS011;42408;53.238;5.686;2022-11-23T10:55:48;23.02;;;6.18;;
56511;SDS011;42408;53.238;5.686;2022-11-23T11:00:57;16.02;;;5.88;;
56511;SDS011;42408;53.238;5.686;2022-11-23T11:03:31;13.90;;;6.00;;
56511;SDS011;42408;53.238;5.686;2022-11-23T11:05:58;15.00;;;5.97;;
56511;SDS011;42408;53.238;5.686;2022-11-23T11:08:27;12.73;;;6.07;;
56511;SDS011;42408;53.238;5.686;2022-11-23T11:11:07;15.13;;;5.20;;
56511;SDS011;42408;53.238;5.686;2022-11-23T11:13:46;11.07;;;5.22;;
56511;SDS011;42408;53.238;5.686;2022-11-23T11:18:44;11.30;;;4.30;;
56511;SDS011;42408;53.238;5.686;2022-11-23T11:21:18;18.30;;;5.53;;
56511;SDS011;42408;53.238;5.686;2022-11-23T11:24:04;9.80;;;4.40;;
56511;SDS011;42408;53.238;5.686;2022-11-23T11:26:37;15.20;;;5.03;;
56511;SDS011;42408;53.238;5.686;2022-11-23T11:29:23;13.30;;;5.03;;
56511;SDS011;42408;53.238;5.686;2022-11-23T11:32:00;12.23;;;4.68;;
56511;SDS011;42408;53.238;5.686;2022-11-23T11:34:34;14.80;;;4.60;;
56511;SDS011;42408;53.238;5.686;2022-11-23T11:37:16;12.98;;;4.38;;
56511;SDS011;42408;53.238;5.686;2022-11-23T11:40:02;16.20;;;4.55;;
56511;SDS011;42408;53.238;5.686;2022-11-23T11:45:06;16.02;;;4.70;;
56511;SDS011;42408;53.238;5.686;2022-11-23T11:47:46;15.52;;;4.43;;
56511;SDS011;42408;53.238;5.686;2022-11-23T11:50:28;14.07;;;3.92;;
56511;SDS011;42408;53.238;5.686;2022-11-23T11:53:03;12.20;;;3.75;;
56511;SDS011;42408;53.238;5.686;2022-11-23T11:58:21;13.13;;;3.67;;
56511;SDS011;42408;53.238;5.686;2022-11-23T12:00:50;12.35;;;3.80;;
56511;SDS011;42408;53.238;5.686;2022-11-23T12:03:40;13.82;;;4.90;;
56511;SDS011;42408;53.238;5.686;2022-11-23T12:06:17;12.85;;;3.90;;
56511;SDS011;42408;53.238;5.686;2022-11-23T12:11:23;13.25;;;4.40;;
56511;SDS011;42408;53.238;5.686;2022-11-23T12:13:58;11.97;;;3.20;;
56511;SDS011;42408;53.238;5.686;2022-11-23T12:16:28;12.50;;;3.38;;
56511;SDS011;42408;53.238;5.686;2022-11-23T12:19:18;16.88;;;4.00;;
56511;SDS011;42408;53.238;5.686;2022-11-23T12:27:22;14.83;;;4.33;;
56511;SDS011;42408;53.238;5.686;2022-11-23T12:30:03;18.35;;;4.15;;
56511;SDS011;42408;53.238;5.686;2022-11-23T12:42:11;11.20;;;3.60;;
56511;SDS011;42408;53.238;5.686;2022-11-23T12:50:38;9.00;;;2.90;;
56511;SDS011;42408;53.238;5.686;2022-11-23T12:53:18;13.40;;;3.15;;
56511;SDS011;42408;53.238;5.686;2022-11-23T12:59:10;13.18;;;3.17;;
56511;SDS011;42408;53.238;5.686;2022-11-23T13:01:40;10.70;;;3.28;;
56511;SDS011;42408;53.238;5.686;2022-11-23T13:07:31;17.40;;;3.88;;
56511;SDS011;42408;53.238;5.686;2022-11-23T13:10:13;9.07;;;3.08;;
56511;SDS011;42408;53.238;5.686;2022-11-23T13:23:58;12.07;;;3.45;;
56511;SDS011;42408;53.238;5.686;2022-11-23T13:26:24;12.83;;;4.30;;
56511;SDS011;42408;53.238;5.686;2022-11-23T13:28:56;12.57;;;3.42;;
56511;SDS011;42408;53.238;5.686;2022-11-23T13:33:56;11.02;;;3.20;;
56511;SDS011;42408;53.238;5.686;2022-11-23T13:39:01;11.20;;;3.80;;
56511;SDS011;42408;53.238;5.686;2022-11-23T13:46:54;12.30;;;3.38;;
56511;SDS011;42408;53.238;5.686;2022-11-23T13:49:29;12.48;;;3.60;;
56511;SDS011;42408;53.238;5.686;2022-11-23T13:52:17;11.48;;;3.10;;
56511;SDS011;42408;53.238;5.686;2022-11-23T14:05:58;10.05;;;3.25;;
56511;SDS011;42408;53.238;5.686;2022-11-23T14:08:26;9.68;;;3.70;;
56511;SDS011;42408;53.238;5.686;2022-11-23T14:10:52;11.98;;;3.58;;
56511;SDS011;42408;53.238;5.686;2022-11-23T14:13:20;13.87;;;3.40;;
56511;SDS011;42408;53.238;5.686;2022-11-23T14:15:57;10.45;;;2.88;;
56511;SDS011;42408;53.238;5.686;2022-11-23T14:21:23;12.05;;;3.28;;
56511;SDS011;42408;53.238;5.686;2022-11-23T14:34:46;9.73;;;2.83;;
56511;SDS011;42408;53.238;5.686;2022-11-23T14:42:51;10.30;;;3.10;;
56511;SDS011;42408;53.238;5.686;2022-11-23T14:45:19;12.40;;;3.58;;
56511;SDS011;42408;53.238;5.686;2022-11-23T14:47:47;12.15;;;4.03;;
56511;SDS011;42408;53.238;5.686;2022-11-23T14:50:23;9.35;;;3.42;;
56511;SDS011;42408;53.238;5.686;2022-11-23T14:52:51;11.75;;;2.83;;
56511;SDS011;42408;53.238;5.686;2022-11-23T14:55:21;8.90;;;2.70;;
56511;SDS011;42408;53.238;5.686;2022-11-23T14:57:49;10.27;;;2.70;;
56511;SDS011;42408;53.238;5.686;2022-11-23T15:03:01;9.82;;;2.97;;
56511;SDS011;42408;53.238;5.686;2022-11-23T15:05:51;10.45;;;3.80;;
56511;SDS011;42408;53.238;5.686;2022-11-23T15:08:22;12.70;;;3.55;;
56511;SDS011;42408;53.238;5.686;2022-11-23T15:11:02;10.75;;;3.05;;
56511;SDS011;42408;53.238;5.686;2022-11-23T15:13:47;9.48;;;2.80;;
56511;SDS011;42408;53.238;5.686;2022-11-23T15:16:15;7.53;;;3.00;;
56511;SDS011;42408;53.238;5.686;2022-11-23T15:18:42;13.20;;;3.28;;
56511;SDS011;42408;53.238;5.686;2022-11-23T15:23:35;9.33;;;2.93;;
56511;SDS011;42408;53.238;5.686;2022-11-23T15:26:05;8.85;;;2.58;;
56511;SDS011;42408;53.238;5.686;2022-11-23T15:28:45;9.23;;;2.75;;
56511;SDS011;42408;53.238;5.686;2022-11-23T15:31:16;11.13;;;3.45;;
56511;SDS011;42408;53.238;5.686;2022-11-23T15:33:54;9.02;;;2.60;;
56511;SDS011;42408;53.238;5.686;2022-11-23T15:36:29;9.10;;;2.55;;
56511;SDS011;42408;53.238;5.686;2022-11-23T15:38:57;9.32;;;3.05;;
56511;SDS011;42408;53.238;5.686;2022-11-23T15:41:23;8.48;;;2.58;;
56511;SDS011;42408;53.238;5.686;2022-11-23T15:43:51;8.38;;;3.00;;
56511;SDS011;42408;53.238;5.686;2022-11-23T15:46:21;10.45;;;3.63;;
56511;SDS011;42408;53.238;5.686;2022-11-23T15:48:49;7.07;;;2.90;;
56511;SDS011;42408;53.238;5.686;2022-11-23T15:51:58;10.20;;;3.47;;
56511;SDS011;42408;53.238;5.686;2022-11-23T15:54:20;8.50;;;3.42;;
56511;SDS011;42408;53.238;5.686;2022-11-23T15:56:48;4.65;;;2.65;;
56511;SDS011;42408;53.238;5.686;2022-11-23T16:01:57;10.55;;;3.30;;
56511;SDS011;42408;53.238;5.686;2022-11-23T16:04:26;7.47;;;3.40;;
56511;SDS011;42408;53.238;5.686;2022-11-23T16:06:54;8.40;;;3.30;;
56511;SDS011;42408;53.238;5.686;2022-11-23T16:09:31;12.30;;;3.35;;
56511;SDS011;42408;53.238;5.686;2022-11-23T16:12:18;9.52;;;3.30;;
56511;SDS011;42408;53.238;5.686;2022-11-23T16:14:50;8.27;;;3.38;;
56511;SDS011;42408;53.238;5.686;2022-11-23T16:17:18;12.23;;;3.78;;
56511;SDS011;42408;53.238;5.686;2022-11-23T16:19:45;11.68;;;4.05;;
56511;SDS011;42408;53.238;5.686;2022-11-23T16:22:17;12.25;;;3.65;;
56511;SDS011;42408;53.238;5.686;2022-11-23T16:24:57;12.63;;;3.78;;
56511;SDS011;42408;53.238;5.686;2022-11-23T16:27:31;5.93;;;3.08;;
56511;SDS011;42408;53.238;5.686;2022-11-23T16:29:57;11.82;;;3.33;;
56511;SDS011;42408;53.238;5.686;2022-11-23T16:32:24;7.57;;;3.33;;
56511;SDS011;42408;53.238;5.686;2022-11-23T16:34:52;8.52;;;2.72;;
56511;SDS011;42408;53.238;5.686;2022-11-23T16:37:18;11.18;;;4.15;;
56511;SDS011;42408;53.238;5.686;2022-11-23T16:39:44;9.80;;;3.37;;